Terminal Aerodrome Forecast
Issued by NWS

Home | Current Version | Previous Version | Text Only | Print | Product List | Glossary Off
Versions: 1 2 3 4 5 6 7 8 9 10 11 12 13 14 15 16 17 18 19 20 21 22

895
FTUS42 KMHX 230559
TAFOAJ
TAF
KOAJ 230559Z 2306/2406 06010KT P6SM RA VCTS OVC005CB
     FM230800 15009KT P6SM OVC007
     FM230900 22007KT P6SM SCT015 BKN080
     FM231800 25005KT P6SM VCSH BKN035
     FM240000 30008KT P6SM BKN025
      AMD LTD TO CLD VIS AND WIND=

USA.gov is the U.S. government's official web portal to all federal, state and local government web resources and services.